Time;durP1;ratioP1;P1;durP2;ratioP2;P2;SDS_P1;SDS_P2;PMS_P1;PMS_P2;Temp;Humidity;BMP_temperature;BMP_pressure;BME280_temperature;BME280_humidity;BME280_pressure;Samples;Min_cycle;Max_cycle;Signal;HPM_P1;HPM_P2
2022/08/27 00:01:04;;;;;;;0.00;0.00;;;;;;;15.52;83.77;101676.16;5027322;28;20033;-71
2022/08/27 00:03:29;;;;;;;0.00;0.00;;;;;;;15.50;83.78;101675.41;5024838;28;20223;-70
2022/08/27 00:05:55;;;;;;;0.00;0.00;;;;;;;15.15;84.11;101640.41;5018308;28;20033;-70
2022/08/27 00:08:20;;;;;;;0.00;0.00;;;;;;;15.35;84.05;101673.06;5023885;28;20606;-70
2022/08/27 00:10:45;;;;;;;0.00;0.00;;;;;;;15.22;84.79;101664.25;5025933;28;20040;-70
2022/08/27 00:13:11;;;;;;;0.10;0.10;;;;;;;15.00;85.01;101636.31;5028010;28;20029;-70
2022/08/27 00:15:36;;;;;;;0.00;0.00;;;;;;;15.10;85.17;101664.28;5023471;28;20065;-70
2022/08/27 00:18:02;;;;;;;0.00;0.00;;;;;;;15.06;85.29;101667.38;5028963;28;20029;-70
2022/08/27 00:20:27;;;;;;;0.00;0.00;;;;;;;14.95;85.59;101661.03;5024807;28;20361;-70
2022/08/27 00:22:53;;;;;;;0.00;0.00;;;;;;;14.94;86.52;101661.16;5027095;28;20472;-70
2022/08/27 00:25:19;;;;;;;0.00;0.00;;;;;;;14.98;86.58;101666.16;5021229;28;20034;-70
2022/08/27 00:27:45;;;;;;;0.00;0.00;;;;;;;15.02;86.36;101665.91;5026721;28;20025;-70
2022/08/27 00:30:14;;;;;;;0.00;0.00;;;;;;;15.03;86.30;101664.94;5026633;28;20030;-70
2022/08/27 00:32:40;;;;;;;0.00;0.00;;;;;;;15.00;86.95;101657.94;5020396;28;20052;-70
2022/08/27 00:35:06;;;;;;;0.00;0.00;;;;;;;14.86;87.76;101648.28;5020994;28;20025;-70
2022/08/27 00:37:32;;;;;;;0.00;0.00;;;;;;;14.85;87.25;101665.50;5025163;28;20421;-70
2022/08/27 00:39:57;;;;;;;0.00;0.00;;;;;;;14.86;87.16;101661.78;5025236;28;20405;-70
2022/08/27 00:42:22;;;;;;;0.00;0.00;;;;;;;14.83;87.04;101667.47;5019482;28;20044;-70
2022/08/27 00:44:48;;;;;;;0.00;0.00;;;;;;;14.66;87.31;101647.19;5018345;28;20025;-70
2022/08/27 00:47:19;;;;;;;0.00;0.00;;;;;;;14.90;86.66;101663.25;5022945;28;20107;-70
2022/08/27 00:49:57;;;;;;;0.00;0.00;;;;;;;14.98;86.17;101658.06;5016846;28;20021;-70
2022/08/27 00:52:31;;;;;;;0.00;0.00;;;;;;;14.90;86.03;101640.75;5014744;28;20063;-70
2022/08/27 00:55:21;;;;;;;0.00;0.00;;;;;;;14.96;86.61;101670.00;5016557;28;20029;-70
2022/08/27 00:57:54;;;;;;;0.00;0.00;;;;;;;14.84;86.94;101667.31;5015928;28;20041;-70
2022/08/27 01:00:19;;;;;;;0.00;0.00;;;;;;;14.80;87.29;101660.47;5021210;28;20353;-70
2022/08/27 01:02:46;;;;;;;0.00;0.00;;;;;;;14.71;87.57;101645.00;5019532;28;20055;-70
2022/08/27 01:05:17;;;;;;;0.10;0.10;;;;;;;14.77;87.70;101665.25;5020151;28;20033;-70
2022/08/27 01:07:46;;;;;;;0.08;0.08;;;;;;;14.79;86.91;101672.28;5020400;28;20522;-70
2022/08/27 01:10:16;;;;;;;0.00;0.00;;;;;;;14.46;86.73;101638.88;5021731;28;20061;-70
2022/08/27 01:12:42;;;;;;;0.00;0.00;;;;;;;14.52;87.30;101664.53;5015388;28;20025;-70
2022/08/27 01:15:10;;;;;;;0.00;0.00;;;;;;;14.52;87.43;101660.00;5020510;28;20039;-70
2022/08/27 01:17:36;;;;;;;0.10;0.10;;;;;;;14.56;87.97;101660.59;5020218;28;20034;-70
2022/08/27 01:20:07;;;;;;;0.00;0.00;;;;;;;14.51;88.24;101666.41;5020304;28;20040;-70
2022/08/27 01:23:10;;;;;;;0.08;0.08;;;;;;;14.28;87.85;101667.41;5014958;28;20325;-70
2022/08/27 01:25:36;;;;;;;0.00;0.00;;;;;;;14.12;88.46;101670.47;5019519;28;20508;-70
2022/08/27 01:28:03;;;;;;;0.10;0.10;;;;;;;14.04;88.74;101666.53;5021420;28;20074;-70
2022/08/27 01:30:30;;;;;;;0.00;0.00;;;;;;;13.89;89.17;101663.22;5021104;28;20030;-70
2022/08/27 01:32:55;;;;;;;0.00;0.00;;;;;;;13.78;89.20;101665.88;5020254;28;20034;-70
2022/08/27 01:35:22;;;;;;;0.00;0.00;;;;;;;13.53;89.70;101645.38;5020270;28;20080;-70
2022/08/27 01:37:49;;;;;;;0.00;0.00;;;;;;;13.50;90.05;101658.13;5021307;28;20562;-70
2022/08/27 01:40:17;;;;;;;0.00;0.00;;;;;;;13.34;90.33;101644.91;5020172;28;20029;-70
2022/08/27 01:42:45;;;;;;;0.00;0.00;;;;;;;13.43;90.22;101664.94;5018605;28;20087;-70
2022/08/27 01:45:15;;;;;;;0.00;0.00;;;;;;;13.41;89.99;101664.22;5020865;28;20396;-70
2022/08/27 01:47:41;;;;;;;0.00;0.00;;;;;;;13.28;90.72;101658.88;5022065;28;20025;-70
2022/08/27 01:50:23;;;;;;;0.00;0.00;;;;;;;13.14;91.22;101654.53;5020024;28;20476;-70
2022/08/27 01:52:49;;;;;;;0.00;0.00;;;;;;;13.09;92.62;101651.34;5019098;28;20033;-70
2022/08/27 01:55:17;;;;;;;0.10;0.10;;;;;;;13.09;92.98;101664.81;5020298;28;20029;-70
2022/08/27 01:57:43;;;;;;;0.00;0.00;;;;;;;13.09;93.89;101659.44;5026244;28;20044;-70
2022/08/27 02:00:13;;;;;;;0.00;0.00;;;;;;;13.08;93.33;101663.09;5025450;28;20472;-70
2022/08/27 02:02:40;;;;;;;0.05;0.05;;;;;;;13.08;93.10;101659.53;5013566;28;20038;-70
2022/08/27 02:05:05;;;;;;;0.03;0.03;;;;;;;13.12;94.42;101652.94;5023553;28;20072;-70
2022/08/27 02:07:30;;;;;;;0.00;0.00;;;;;;;13.14;93.45;101651.81;5025963;28;20112;-70
2022/08/27 02:09:56;;;;;;;0.00;0.00;;;;;;;13.10;93.53;101660.28;5027278;28;20029;-70
2022/08/27 02:12:22;;;;;;;0.03;0.03;;;;;;;13.01;94.34;101642.97;5025266;28;20151;-70
2022/08/27 02:14:47;;;;;;;0.00;0.00;;;;;;;13.09;94.14;101650.47;5025329;28;20056;-70
2022/08/27 02:17:12;;;;;;;0.00;0.00;;;;;;;13.07;93.20;101647.03;5026699;28;20033;-70
2022/08/27 02:19:37;;;;;;;0.00;0.00;;;;;;;13.04;93.88;101648.13;5027353;28;20033;-70
2022/08/27 02:22:03;;;;;;;0.00;0.00;;;;;;;13.08;94.18;101640.66;5020782;28;20040;-70
2022/08/27 02:24:28;;;;;;;0.00;0.00;;;;;;;13.09;93.66;101651.34;5023572;28;20064;-70
2022/08/27 02:26:54;;;;;;;0.00;0.00;;;;;;;13.11;93.53;101640.41;5025462;28;20659;-70
2022/08/27 02:29:20;;;;;;;0.00;0.00;;;;;;;13.08;94.19;101632.56;5022741;28;20033;-70
2022/08/27 02:31:45;;;;;;;0.00;0.00;;;;;;;13.14;95.45;101630.25;5018123;28;20111;-70
2022/08/27 02:34:10;;;;;;;0.00;0.00;;;;;;;13.07;95.68;101622.75;5021832;28;20140;-70
2022/08/27 02:36:36;;;;;;;0.00;0.00;;;;;;;13.08;96.23;101625.34;5021789;28;20419;-70
2022/08/27 02:39:03;;;;;;;0.10;0.10;;;;;;;13.11;96.83;101627.78;5021228;28;20029;-70
2022/08/27 02:41:28;;;;;;;0.00;0.00;;;;;;;13.14;97.16;101632.09;5021667;28;20056;-70
2022/08/27 02:43:54;;;;;;;0.00;0.00;;;;;;;13.14;96.72;101626.72;5025919;28;20053;-70
2022/08/27 02:46:19;;;;;;;0.00;0.00;;;;;;;13.13;97.19;101625.84;5016840;28;20547;-70
2022/08/27 02:48:44;;;;;;;0.10;0.10;;;;;;;13.12;96.83;101620.56;5022878;28;20448;-70
2022/08/27 02:51:09;;;;;;;0.08;0.08;;;;;;;13.15;96.52;101631.13;5020934;28;20033;-70
2022/08/27 02:53:36;;;;;;;0.00;0.00;;;;;;;12.98;96.81;101602.75;5026545;28;20033;-70
2022/08/27 02:56:03;;;;;;;0.10;0.10;;;;;;;13.22;96.91;101639.59;5025587;28;20630;-70
2022/08/27 02:58:28;;;;;;;0.00;0.00;;;;;;;13.28;96.30;101645.38;5024452;28;20040;-70
2022/08/27 03:00:55;;;;;;;0.00;0.00;;;;;;;13.20;95.86;101634.34;5024480;28;20029;-70
2022/08/27 03:03:20;;;;;;;0.00;0.00;;;;;;;13.17;96.16;101627.31;5024197;28;20372;-70
2022/08/27 03:05:46;;;;;;;0.00;0.00;;;;;;;13.25;96.52;101633.97;5024673;28;20032;-70
2022/08/27 03:08:12;;;;;;;0.10;0.10;;;;;;;13.14;95.97;101611.38;5025734;28;20033;-70
2022/08/27 03:10:38;;;;;;;0.10;0.10;;;;;;;13.25;95.68;101624.03;5025532;28;20125;-70
2022/08/27 03:13:04;;;;;;;0.05;0.05;;;;;;;13.29;96.09;101622.81;5024841;28;20365;-70
2022/08/27 03:15:29;;;;;;;0.10;0.10;;;;;;;13.19;96.88;101595.72;5025560;28;20025;-70
2022/08/27 03:20:41;;;;;;;0.00;0.00;;;;;;;13.45;97.28;101627.94;5023440;28;20068;-70
2022/08/27 03:23:08;;;;;;;0.10;0.10;;;;;;;13.50;97.86;101625.75;5023826;28;20037;-70
2022/08/27 03:25:33;;;;;;;0.10;0.10;;;;;;;13.55;98.06;101628.06;5026245;28;20030;-70
2022/08/27 03:27:58;;;;;;;0.00;0.00;;;;;;;13.57;98.32;101628.81;5025783;28;20025;-70
2022/08/27 03:30:24;;;;;;;0.10;0.10;;;;;;;13.62;98.34;101632.00;5024572;28;20057;-70
2022/08/27 03:32:50;;;;;;;0.00;0.00;;;;;;;13.68;98.46;101629.81;5022907;28;20464;-70
2022/08/27 03:35:16;;;;;;;0.10;0.10;;;;;;;13.73;98.30;101633.03;5024190;28;20029;-70
2022/08/27 03:37:42;;;;;;;0.10;0.10;;;;;;;13.61;98.50;101610.56;5025891;28;20029;-70
2022/08/27 03:40:07;;;;;;;0.05;0.05;;;;;;;13.83;99.22;101638.56;5026636;28;20026;-70
2022/08/27 03:42:33;;;;;;;0.00;0.00;;;;;;;13.65;99.91;101604.78;5020593;28;20040;-70
2022/08/27 03:44:59;;;;;;;0.10;0.10;;;;;;;13.88;100.00;101639.06;5025102;28;20526;-70
2022/08/27 03:47:25;;;;;;;0.00;0.00;;;;;;;13.84;100.00;101642.97;5023104;28;20406;-70
2022/08/27 03:49:50;;;;;;;0.00;0.00;;;;;;;13.88;99.99;101648.00;5022799;28;20037;-70
2022/08/27 03:52:15;;;;;;;0.00;0.00;;;;;;;13.94;100.00;101646.63;5025075;28;20080;-70
2022/08/27 03:54:41;;;;;;;0.10;0.10;;;;;;;13.94;100.00;101631.31;5023806;28;20032;-70
2022/08/27 03:57:06;;;;;;;0.10;0.10;;;;;;;14.07;100.00;101641.13;5024698;28;20033;-70
2022/08/27 03:59:32;;;;;;;0.10;0.10;;;;;;;14.12;100.00;101652.41;5024998;28;20099;-70
2022/08/27 04:01:58;;;;;;;0.00;0.00;;;;;;;14.19;99.81;101650.94;5025102;28;20022;-70
2022/08/27 04:04:23;;;;;;;0.00;0.00;;;;;;;14.27;99.75;101646.78;5024285;28;20135;-70
2022/08/27 04:06:49;;;;;;;0.10;0.10;;;;;;;14.16;99.24;101618.78;5022647;28;20361;-70
2022/08/27 04:09:15;;;;;;;0.00;0.00;;;;;;;14.39;99.22;101637.66;5024395;28;20527;-70
2022/08/27 04:11:40;;;;;;;0.10;0.10;;;;;;;14.44;98.97;101638.16;5023724;28;20116;-70
2022/08/27 04:14:06;;;;;;;0.00;0.00;;;;;;;14.44;99.35;101638.16;5023707;28;20128;-70
2022/08/27 04:16:32;;;;;;;0.00;0.00;;;;;;;14.40;99.18;101636.69;5021402;28;20037;-70
2022/08/27 04:18:58;;;;;;;0.00;0.00;;;;;;;14.43;99.03;101643.69;5021416;28;20036;-70
2022/08/27 04:21:24;;;;;;;0.00;0.00;;;;;;;14.49;99.00;101648.56;5023082;28;20030;-70
2022/08/27 04:23:49;;;;;;;0.10;0.10;;;;;;;14.50;98.23;101634.97;5022197;28;20434;-70
2022/08/27 04:26:15;;;;;;;0.00;0.00;;;;;;;14.55;97.88;101640.84;5024374;28;20029;-70
2022/08/27 04:28:41;;;;;;;0.00;0.00;;;;;;;14.51;98.18;101639.38;5027548;28;20022;-70
2022/08/27 04:31:06;;;;;;;0.10;0.10;;;;;;;14.47;98.31;101642.44;5025054;28;20042;-70
2022/08/27 04:33:32;;;;;;;0.00;0.00;;;;;;;14.45;98.49;101639.00;5026706;28;20025;-70
2022/08/27 04:35:58;;;;;;;0.00;0.00;;;;;;;14.44;98.99;101645.38;5020110;28;20175;-70
2022/08/27 04:38:24;;;;;;;0.00;0.00;;;;;;;14.45;98.98;101637.16;5026576;28;20036;-70
2022/08/27 04:43:33;;;;;;;0.00;0.00;;;;;;;14.41;99.18;101641.09;5027695;28;20044;-70
2022/08/27 04:45:58;;;;;;;0.00;0.00;;;;;;;14.43;99.06;101646.41;5027382;28;20037;-70
2022/08/27 04:48:24;;;;;;;0.00;0.00;;;;;;;14.31;99.06;101637.41;5028363;28;20124;-70
2022/08/27 04:50:50;;;;;;;0.10;0.10;;;;;;;14.37;98.99;101645.91;5026364;28;20017;-70
2022/08/27 04:53:15;;;;;;;0.00;0.00;;;;;;;14.45;98.75;101649.81;5024545;28;20064;-70
2022/08/27 04:55:45;;;;;;;0.00;0.00;;;;;;;14.43;98.68;101646.41;5011204;28;20380;-70
2022/08/27 04:58:11;;;;;;;0.10;0.10;;;;;;;14.40;98.63;101648.38;5028099;28;20033;-70
2022/08/27 05:00:41;;;;;;;0.00;0.00;;;;;;;14.39;98.48;101649.34;5023261;28;20535;-70
2022/08/27 05:03:06;;;;;;;0.00;0.00;;;;;;;14.32;98.93;101644.53;5017976;28;20041;-70
2022/08/27 05:05:31;;;;;;;0.10;0.10;;;;;;;14.37;99.07;101655.84;5018464;28;20104;-70
2022/08/27 05:07:57;;;;;;;0.00;0.00;;;;;;;14.32;99.12;101648.13;5025649;28;20033;-70
2022/08/27 05:10:22;;;;;;;0.00;0.00;;;;;;;14.35;99.11;101650.56;5022820;28;20041;-70
2022/08/27 05:12:48;;;;;;;0.10;0.10;;;;;;;14.42;99.30;101663.59;5016420;28;20032;-70
2022/08/27 05:15:13;;;;;;;0.00;0.00;;;;;;;14.40;99.30;101659.16;5024449;28;20522;-70
2022/08/27 05:17:39;;;;;;;0.00;0.00;;;;;;;14.42;99.35;101659.03;5022677;28;20065;-70
2022/08/27 05:20:04;;;;;;;0.00;0.00;;;;;;;14.37;99.38;101639.63;5013890;28;20029;-70
2022/08/27 05:22:30;;;;;;;0.00;0.00;;;;;;;14.38;99.23;101634.13;5016830;28;20033;-70
2022/08/27 05:24:55;;;;;;;0.08;0.08;;;;;;;14.58;99.46;101666.75;5024186;28;20040;-70
2022/08/27 05:27:20;;;;;;;0.00;0.00;;;;;;;14.46;99.57;101635.31;5023949;28;20338;-70
2022/08/27 05:29:45;;;;;;;0.00;0.00;;;;;;;14.69;99.85;101660.50;5026164;28;20439;-70
2022/08/27 05:32:11;;;;;;;0.10;0.10;;;;;;;14.78;99.96;101669.69;5025127;28;20025;-70
2022/08/27 05:34:36;;;;;;;0.00;0.00;;;;;;;14.87;100.00;101671.63;5025780;28;20943;-70
2022/08/27 05:37:01;;;;;;;0.00;0.00;;;;;;;14.80;100.00;101637.97;5019188;28;20084;-70
2022/08/27 05:39:27;;;;;;;0.00;0.00;;;;;;;15.02;100.00;101661.38;5008118;28;20479;-70
2022/08/27 05:41:55;;;;;;;0.00;0.00;;;;;;;15.18;99.60;101665.47;5025147;28;20025;-70
2022/08/27 05:44:21;;;;;;;0.00;0.00;;;;;;;15.24;99.32;101655.00;5022273;28;20108;-70
2022/08/27 05:46:46;;;;;;;0.00;0.00;;;;;;;15.42;99.31;101659.84;5025244;28;20487;-70
2022/08/27 05:49:11;;;;;;;0.00;0.00;;;;;;;15.47;98.80;101645.91;5027414;28;20025;-71
2022/08/27 05:51:37;;;;;;;0.00;0.00;;;;;;;15.58;98.52;101643.16;5025159;28;20037;-70
2022/08/27 05:54:06;;;;;;;0.10;0.10;;;;;;;15.81;96.78;101661.94;5017701;28;20044;-70
2022/08/27 05:56:33;;;;;;;0.05;0.05;;;;;;;15.90;96.01;101663.84;5023637;28;20039;-70
2022/08/27 06:01:45;;;;;;;0.10;0.10;;;;;;;16.19;93.45;101664.00;5026042;28;20462;-70
2022/08/27 06:04:12;;;;;;;0.00;0.00;;;;;;;16.24;91.89;101662.75;5020624;28;20499;-70
2022/08/27 06:06:39;;;;;;;0.00;0.00;;;;;;;16.27;90.62;101665.19;5020102;28;20027;-71
2022/08/27 06:09:07;;;;;;;0.10;0.10;;;;;;;16.44;91.07;101664.53;5026826;28;20040;-71
2022/08/27 06:11:33;;;;;;;0.08;0.08;;;;;;;16.54;90.54;101671.84;5025113;28;20602;-70
2022/08/27 06:13:58;;;;;;;0.00;0.00;;;;;;;16.62;89.76;101669.28;5020820;28;20116;-71
2022/08/27 06:16:24;;;;;;;0.00;0.00;;;;;;;16.76;88.69;101663.47;5025337;28;20051;-70
2022/08/27 06:18:49;;;;;;;0.00;0.00;;;;;;;16.88;88.39;101668.75;5024099;28;20022;-70
2022/08/27 06:21:16;;;;;;;0.00;0.00;;;;;;;16.91;88.15;101672.06;5003528;28;20468;-71
2022/08/27 06:23:42;;;;;;;0.00;0.00;;;;;;;17.03;87.42;101671.94;5024321;28;20504;-70
2022/08/27 06:26:15;;;;;;;0.00;0.00;;;;;;;17.01;85.63;101657.66;5008030;28;20052;-70
2022/08/27 06:28:40;;;;;;;0.08;0.08;;;;;;;17.12;85.86;101662.94;5022569;28;20460;-70
2022/08/27 06:31:10;;;;;;;0.00;0.00;;;;;;;17.19;83.03;101672.25;5025798;28;20040;-70
2022/08/27 06:33:36;;;;;;;0.00;0.00;;;;;;;17.21;83.09;101663.94;5016701;28;20495;-70
2022/08/27 06:36:04;;;;;;;0.00;0.00;;;;;;;17.20;83.53;101654.97;5026099;28;20043;-71
2022/08/27 06:38:29;;;;;;;0.00;0.00;;;;;;;17.31;82.42;101677.50;5026073;28;20033;-71
2022/08/27 06:40:56;;;;;;;0.00;0.00;;;;;;;17.32;81.64;101671.94;5009452;28;20536;-71
2022/08/27 06:43:22;;;;;;;0.00;0.00;;;;;;;17.35;82.83;101681.66;5026128;28;20025;-71
2022/08/27 06:45:47;;;;;;;0.00;0.00;;;;;;;17.41;82.42;101681.09;5025646;28;20029;-71
2022/08/27 06:48:13;;;;;;;0.00;0.00;;;;;;;17.52;83.08;101680.06;5022239;28;20033;-70
2022/08/27 06:50:40;;;;;;;0.00;0.00;;;;;;;17.39;80.50;101658.66;5020891;28;20035;-71
2022/08/27 06:53:06;;;;;;;0.00;0.00;;;;;;;17.57;81.50;101677.78;5022684;28;20476;-71
2022/08/27 06:55:31;;;;;;;0.00;0.00;;;;;;;17.45;80.34;101674.38;5022144;28;20036;-71
2022/08/27 06:57:57;;;;;;;0.00;0.00;;;;;;;17.61;80.70;101684.59;5021473;28;20467;-71
2022/08/27 07:00:22;;;;;;;0.00;0.00;;;;;;;17.71;80.69;101683.75;5018803;28;20826;-70
2022/08/27 07:02:49;;;;;;;0.00;0.00;;;;;;;17.71;79.25;101675.59;5020740;28;20456;-70
2022/08/27 07:05:14;;;;;;;0.00;0.00;;;;;;;17.73;79.50;101677.19;5023275;28;20043;-71
2022/08/27 07:07:39;;;;;;;0.00;0.00;;;;;;;17.76;80.54;101678.75;5022521;28;20022;-71
2022/08/27 07:10:06;;;;;;;0.00;0.00;;;;;;;17.82;79.48;101675.44;5022583;28;20412;-71
2022/08/27 07:12:31;;;;;;;0.00;0.00;;;;;;;17.80;79.32;101674.72;5017152;28;20410;-71
2022/08/27 07:14:57;;;;;;;0.00;0.00;;;;;;;17.75;79.17;101675.16;5020468;28;20514;-68
2022/08/27 07:17:22;;;;;;;0.00;0.00;;;;;;;17.54;79.39;101662.63;5023468;28;20045;-70
2022/08/27 07:19:48;;;;;;;0.00;0.00;;;;;;;17.62;79.58;101683.59;5020795;28;20033;-70
2022/08/27 07:22:13;;;;;;;0.00;0.00;;;;;;;17.50;79.66;101669.34;5017860;28;20373;-71
2022/08/27 07:24:38;;;;;;;0.00;0.00;;;;;;;17.47;80.53;101664.22;5022836;28;20084;-72
2022/08/27 07:27:04;;;;;;;0.00;0.00;;;;;;;17.50;80.77;101676.63;5019295;28;20144;-69
2022/08/27 07:29:31;;;;;;;0.10;0.00;;;;;;;17.48;81.34;101689.50;5019060;28;20033;-71
2022/08/27 07:31:57;;;;;;;0.00;0.00;;;;;;;17.51;80.86;101689.22;5022500;28;20033;-70
2022/08/27 07:34:22;;;;;;;0.00;0.00;;;;;;;17.66;79.71;101665.19;5020127;28;22355;-72
2022/08/27 07:36:47;;;;;;;0.00;0.00;;;;;;;17.76;77.66;101673.31;5019811;28;20030;-75
2022/08/27 07:39:15;;;;;;;0.00;0.00;;;;;;;17.94;77.67;101678.84;5020581;28;20140;-72
2022/08/27 07:44:26;;;;;;;0.00;0.00;;;;;;;18.43;76.12;101678.66;5023121;28;20403;-71
2022/08/27 07:46:54;;;;;;;0.00;0.00;;;;;;;18.78;73.42;101679.75;5027608;28;20029;-71
2022/08/27 07:49:21;;;;;;;0.00;0.00;;;;;;;18.98;70.48;101693.25;5023037;28;20061;-72
2022/08/27 07:51:46;;;;;;;0.00;0.00;;;;;;;19.08;69.63;101691.31;5022454;28;20135;-70
2022/08/27 07:54:12;;;;;;;0.00;0.00;;;;;;;19.09;69.11;101673.97;5024710;28;20490;-70
2022/08/27 07:56:37;;;;;;;0.00;0.00;;;;;;;19.41;68.84;101693.47;5023205;28;20029;-71
2022/08/27 07:59:03;;;;;;;0.00;0.00;;;;;;;19.56;67.54;101691.03;5031934;28;20047;-70
2022/08/27 08:01:28;;;;;;;0.00;0.00;;;;;;;19.42;66.88;101671.53;5026639;28;20029;-71
2022/08/27 08:03:54;;;;;;;0.00;0.00;;;;;;;19.62;65.76;101676.78;5033604;28;20511;-74
2022/08/27 08:06:19;;;;;;;0.00;0.00;;;;;;;19.62;64.96;101695.84;5025885;28;20041;-70
2022/08/27 08:08:45;;;;;;;0.00;0.00;;;;;;;19.87;66.45;101705.03;5026302;28;20025;-70
2022/08/27 08:11:12;;;;;;;0.00;0.00;;;;;;;19.83;65.16;101681.88;5028695;28;20040;-70
2022/08/27 08:13:38;;;;;;;0.00;0.00;;;;;;;19.96;64.46;101677.88;5021748;28;20029;-74
2022/08/27 08:16:04;;;;;;;0.00;0.00;;;;;;;19.75;64.29;101641.78;5029605;28;20495;-70
2022/08/27 08:18:29;;;;;;;0.00;0.00;;;;;;;20.05;65.08;101685.94;5027441;28;20035;-71
2022/08/27 08:21:02;;;;;;;0.00;0.00;;;;;;;20.05;64.18;101669.59;5022647;28;20032;-73
2022/08/27 08:23:28;;;;;;;0.00;0.00;;;;;;;20.31;64.18;101690.50;5023821;28;20379;-71
2022/08/27 08:25:54;;;;;;;0.00;0.00;;;;;;;20.33;63.35;101695.81;5021011;28;20059;-71
2022/08/27 08:28:19;;;;;;;0.00;0.00;;;;;;;20.40;63.05;101696.84;5018144;28;20061;-71
2022/08/27 08:30:46;;;;;;;0.00;0.00;;;;;;;20.44;63.67;101697.41;5021309;28;20032;-70
2022/08/27 08:33:12;;;;;;;0.00;0.00;;;;;;;20.59;63.18;101692.16;5025004;28;20029;-70
2022/08/27 08:35:38;;;;;;;0.00;0.00;;;;;;;20.61;62.46;101681.94;5023070;28;20029;-70
2022/08/27 08:38:03;;;;;;;0.00;0.00;;;;;;;20.74;60.92;101695.13;5022704;28;20519;-70
2022/08/27 08:40:38;;;;;;;0.00;0.00;;;;;;;20.78;62.62;101700.09;5019337;28;20040;-70
2022/08/27 08:43:05;;;;;;;0.00;0.00;;;;;;;20.88;62.13;101682.72;5026632;28;20030;-71
2022/08/27 08:45:33;;;;;;;0.00;0.00;;;;;;;20.97;61.93;101700.81;5024882;28;20025;-71
2022/08/27 08:48:11;;;;;;;0.00;0.00;;;;;;;21.02;58.91;101700.34;5024003;28;20036;-70
2022/08/27 08:50:54;;;;;;;0.00;0.00;;;;;;;21.19;60.70;101707.50;5021116;28;20029;-71
2022/08/27 08:53:40;;;;;;;0.00;0.00;;;;;;;21.41;60.51;101705.13;5024822;28;20025;-70
2022/08/27 08:56:11;;;;;;;0.00;0.00;;;;;;;21.58;59.11;101697.78;5025132;28;20022;-70
2022/08/27 08:58:44;;;;;;;0.00;0.00;;;;;;;21.77;59.64;101695.75;5018474;28;20116;-72
2022/08/27 09:01:10;;;;;;;0.00;0.00;;;;;;;21.87;59.48;101699.16;5021804;28;20021;-71
2022/08/27 09:03:39;;;;;;;0.00;0.00;;;;;;;22.03;58.79;101699.13;5005799;28;20021;-70
2022/08/27 09:06:13;;;;;;;0.00;0.00;;;;;;;22.05;58.15;101693.50;5037551;28;20033;-70
2022/08/27 09:08:41;;;;;;;0.00;0.00;;;;;;;22.28;58.91;101692.72;5021578;28;20021;-73
2022/08/27 09:11:32;;;;;;;0.00;0.00;;;;;;;22.42;56.87;101699.34;5022115;28;20176;-74
2022/08/27 09:14:01;;;;;;;0.00;0.00;;;;;;;22.42;58.02;101697.44;5023460;28;20115;-75
2022/08/27 09:16:26;;;;;;;0.00;0.00;;;;;;;22.21;57.46;101703.53;5019612;28;20029;-75
2022/08/27 09:18:52;;;;;;;0.00;0.00;;;;;;;21.95;57.59;101685.50;5022699;28;20030;-75
2022/08/27 09:21:41;;;;;;;0.00;0.00;;;;;;;21.73;56.48;101700.72;5019816;28;20024;-74
2022/08/27 09:24:13;;;;;;;0.00;0.00;;;;;;;21.66;56.69;101703.28;5021231;28;20493;-74
2022/08/27 09:26:41;;;;;;;0.00;0.00;;;;;;;21.72;56.61;101686.19;5010946;28;20034;-74
2022/08/27 09:29:15;;;;;;;0.00;0.00;;;;;;;21.68;58.31;101708.56;5019221;28;20037;-74
2022/08/27 09:31:45;;;;;;;0.00;0.00;;;;;;;21.56;56.83;101708.91;5020641;28;20017;-74
2022/08/27 09:34:12;;;;;;;0.00;0.00;;;;;;;21.27;57.77;101701.19;5019917;28;20067;-74
2022/08/27 09:36:58;;;;;;;0.00;0.00;;;;;;;21.34;57.05;101706.84;5017852;28;20464;-76
2022/08/27 09:39:49;;;;;;;0.00;0.00;;;;;;;21.53;56.57;101681.06;5023835;28;20036;-73
2022/08/27 09:42:45;;;;;;;0.00;0.00;;;;;;;22.22;56.95;101702.50;5007083;28;20140;-74
2022/08/27 09:45:22;;;;;;;0.00;0.00;;;;;;;22.65;55.43;101706.78;5003311;28;20136;-75
2022/08/27 09:48:08;;;;;;;0.00;0.00;;;;;;;22.74;55.67;101687.41;5020955;28;20041;-75
2022/08/27 09:50:39;;;;;;;0.00;0.00;;;;;;;22.84;53.76;101700.84;5021864;28;20434;-75
2022/08/27 09:53:19;;;;;;;0.00;0.00;;;;;;;22.95;52.27;101702.34;5035215;28;20034;-76
2022/08/27 09:55:52;;;;;;;0.00;0.00;;;;;;;22.82;51.78;101694.72;5019000;28;20077;-75
2022/08/27 09:58:22;;;;;;;0.00;0.00;;;;;;;23.01;53.72;101704.34;5018655;28;20407;-74
2022/08/27 10:00:56;;;;;;;0.00;0.00;;;;;;;22.98;53.79;101707.44;5024149;28;20052;-73
2022/08/27 10:03:21;;;;;;;0.00;0.00;;;;;;;22.99;51.95;101683.69;5019852;28;20052;-74
2022/08/27 10:05:53;;;;;;;0.00;0.00;;;;;;;23.29;52.21;101697.53;5020201;28;20112;-74
2022/08/27 10:08:27;;;;;;;0.00;0.00;;;;;;;23.20;50.48;101694.81;5020907;28;20055;-73
2022/08/27 10:10:58;;;;;;;0.00;0.00;;;;;;;23.09;51.03;101697.13;5039938;28;20108;-74
2022/08/27 10:13:38;;;;;;;0.00;0.00;;;;;;;23.02;51.37;101702.47;5024761;28;20075;-72
2022/08/27 10:16:41;;;;;;;0.00;0.00;;;;;;;22.76;51.19;101700.94;5029222;28;20090;-74
2022/08/27 10:19:44;;;;;;;0.00;0.00;;;;;;;22.49;53.64;101699.50;5027614;28;20033;-72
2022/08/27 10:22:49;;;;;;;0.00;0.00;;;;;;;22.35;50.98;101696.47;5024314;28;20041;-71
2022/08/27 10:25:36;;;;;;;0.00;0.00;;;;;;;22.22;52.09;101698.91;5030282;28;20369;-72
2022/08/27 10:28:17;;;;;;;0.00;0.00;;;;;;;22.17;52.76;101693.97;5023664;28;20179;-73
2022/08/27 10:31:07;;;;;;;0.00;0.00;;;;;;;22.29;52.54;101697.16;5012995;28;20032;-72
2022/08/27 10:33:38;;;;;;;0.00;0.00;;;;;;;22.30;53.50;101690.66;5019962;28;20026;-73
2022/08/27 10:36:39;;;;;;;0.00;0.00;;;;;;;22.24;51.97;101694.97;5017289;28;20064;-75
2022/08/27 10:39:52;;;;;;;0.00;0.00;;;;;;;23.14;55.19;101690.06;4995573;28;20425;-71
2022/08/27 10:42:33;;;;;;;0.00;0.00;;;;;;;23.78;50.01;101694.34;5014923;28;20091;-70
2022/08/27 10:45:04;;;;;;;0.00;0.00;;;;;;;23.79;49.06;101692.44;5014628;28;20029;-70
2022/08/27 10:48:08;;;;;;;0.00;0.00;;;;;;;23.34;48.18;101695.94;5015470;28;20029;-70
2022/08/27 10:50:43;;;;;;;0.00;0.00;;;;;;;23.19;50.08;101694.97;5013317;28;20029;-73
2022/08/27 10:53:25;;;;;;;0.00;0.00;;;;;;;23.07;51.73;101667.16;5014592;28;20033;-73
2022/08/27 10:55:56;;;;;;;0.00;0.00;;;;;;;23.95;50.39;101685.94;5018101;28;20043;-70
2022/08/27 10:58:40;;;;;;;0.00;0.00;;;;;;;24.47;50.45;101689.66;5020012;28;20025;-72
2022/08/27 11:01:21;;;;;;;0.00;0.00;;;;;;;24.48;46.75;101671.28;5019792;28;20476;-77
2022/08/27 11:03:54;;;;;;;0.00;0.00;;;;;;;24.46;47.01;101681.59;5014100;28;20484;-75
2022/08/27 11:06:24;;;;;;;;;;;;;;;24.39;45.58;101687.84;5018754;28;20555;-75
2022/08/27 11:08:55;;;;;;;0.00;0.00;;;;;;;24.09;48.27;101689.75;4999046;28;19921;-76
2022/08/27 11:11:30;;;;;;;0.00;0.00;;;;;;;24.07;47.54;101673.50;5019158;28;20077;-77
2022/08/27 11:13:58;;;;;;;0.00;0.00;;;;;;;24.61;47.56;101687.91;5015101;28;20029;-77
2022/08/27 11:16:26;;;;;;;0.00;0.00;;;;;;;24.65;46.65;101680.97;5021591;28;20029;-77
2022/08/27 11:18:56;;;;;;;0.00;0.00;;;;;;;24.29;46.99;101680.94;5007735;28;20072;-76
2022/08/27 11:21:28;;;;;;;0.00;0.00;;;;;;;24.00;48.44;101689.00;5022556;28;20120;-75
2022/08/27 11:24:05;;;;;;;0.00;0.00;;;;;;;23.74;48.43;101689.41;5003291;28;20116;-75
2022/08/27 11:26:32;;;;;;;0.00;0.00;;;;;;;23.40;49.34;101679.81;5024655;28;20084;-76
2022/08/27 11:28:59;;;;;;;0.00;0.00;;;;;;;23.33;50.13;101687.88;5024947;28;20029;-75
2022/08/27 11:31:25;;;;;;;0.00;0.00;;;;;;;23.25;50.15;101687.97;5029369;28;20038;-74
2022/08/27 11:34:05;;;;;;;0.00;0.00;;;;;;;22.98;50.79;101676.50;5018968;28;20522;-75
2022/08/27 11:36:48;;;;;;;0.00;0.00;;;;;;;22.96;51.02;101678.56;5021677;28;20029;-75
2022/08/27 11:39:50;;;;;;;0.00;0.00;;;;;;;22.89;52.42;101684.75;5026576;28;20051;-74
2022/08/27 11:42:36;;;;;;;0.00;0.00;;;;;;;23.05;53.85;101675.56;5018968;28;20048;-74
2022/08/27 11:45:17;;;;;;;0.00;0.00;;;;;;;23.18;51.06;101677.72;5023742;28;20119;-76